createdAt,value
2022-09-04T00:00:00.000Z,0.0
2022-09-04T00:02:00.000Z,0.0
2022-09-04T00:04:00.000Z,0.0
2022-09-04T00:06:00.000Z,0.0
2022-09-04T00:08:00.000Z,0.0
2022-09-04T00:10:00.000Z,0.0
2022-09-04T00:12:00.000Z,0.0
2022-09-04T00:14:00.000Z,0.0
2022-09-04T00:16:00.000Z,0.0
2022-09-04T00:18:00.000Z,0.0
2022-09-04T00:20:00.000Z,0.0
2022-09-04T00:22:00.000Z,0.0
2022-09-04T00:24:00.000Z,0.0
2022-09-04T00:26:00.000Z,0.0
2022-09-04T00:28:00.000Z,0.0
2022-09-04T00:30:00.000Z,0.0
2022-09-04T00:32:00.000Z,0.0
2022-09-04T00:34:00.000Z,0.0
2022-09-04T00:36:00.000Z,0.0
2022-09-04T00:38:00.000Z,0.0
2022-09-04T00:40:00.000Z,0.0
2022-09-04T00:42:00.000Z,0.0
2022-09-04T00:44:00.000Z,0.0
2022-09-04T00:46:00.000Z,0.0
2022-09-04T00:48:00.000Z,0.0
2022-09-04T00:50:00.000Z,0.0
2022-09-04T00:52:00.000Z,0.0
2022-09-04T00:54:00.000Z,0.0
2022-09-04T00:56:00.000Z,0.0
2022-09-04T00:58:00.000Z,0.0
2022-09-04T01:00:00.000Z,0.0
2022-09-04T01:02:00.000Z,0.0
2022-09-04T01:04:00.000Z,0.0
2022-09-04T01:06:00.000Z,0.0
2022-09-04T01:08:00.000Z,0.0
2022-09-04T01:10:00.000Z,0.0
2022-09-04T01:12:00.000Z,0.0
2022-09-04T01:14:00.000Z,0.0
2022-09-04T01:16:00.000Z,0.0
2022-09-04T01:18:00.000Z,0.0
2022-09-04T01:20:00.000Z,0.0
2022-09-04T01:22:00.000Z,0.0
2022-09-04T01:24:00.000Z,0.0
2022-09-04T01:26:00.000Z,0.0
2022-09-04T01:28:00.000Z,0.0
2022-09-04T01:30:00.000Z,0.0
2022-09-04T01:32:00.000Z,0.0
2022-09-04T01:34:00.000Z,0.0
2022-09-04T01:36:00.000Z,0.0
2022-09-04T01:38:00.000Z,0.0
2022-09-04T01:40:00.000Z,0.0
2022-09-04T01:42:00.000Z,0.0
2022-09-04T01:44:00.000Z,0.0
2022-09-04T01:46:00.000Z,0.0
2022-09-04T01:48:00.000Z,0.0
2022-09-04T01:50:00.000Z,0.0
2022-09-04T01:52:00.000Z,0.0
2022-09-04T01:54:00.000Z,0.0
2022-09-04T01:56:00.000Z,0.0
2022-09-04T01:58:00.000Z,0.0
2022-09-04T02:00:00.000Z,0.0
2022-09-04T02:02:00.000Z,0.0
2022-09-04T02:04:00.000Z,0.0
2022-09-04T02:06:00.000Z,0.0
2022-09-04T02:08:00.000Z,0.0
2022-09-04T02:10:00.000Z,0.0
2022-09-04T02:12:00.000Z,0.0
2022-09-04T02:14:00.000Z,0.0
2022-09-04T02:16:00.000Z,0.0
2022-09-04T02:18:00.000Z,0.0
2022-09-04T02:20:00.000Z,0.0
2022-09-04T02:22:00.000Z,0.0
2022-09-04T02:24:00.000Z,0.0
2022-09-04T02:26:00.000Z,0.0
2022-09-04T02:28:00.000Z,0.0
2022-09-04T02:30:00.000Z,0.0
2022-09-04T02:32:00.000Z,0.0
2022-09-04T02:34:00.000Z,0.0
2022-09-04T02:36:00.000Z,0.0
2022-09-04T02:38:00.000Z,0.0
2022-09-04T02:40:00.000Z,0.0
2022-09-04T02:42:00.000Z,0.0
2022-09-04T02:44:00.000Z,0.0
2022-09-04T02:46:00.000Z,0.0
2022-09-04T02:48:00.000Z,0.0
2022-09-04T02:50:00.000Z,0.0
2022-09-04T02:52:00.000Z,0.0
2022-09-04T02:54:00.000Z,0.0
2022-09-04T02:56:00.000Z,0.0
2022-09-04T02:58:00.000Z,0.0
2022-09-04T03:00:00.000Z,0.0
2022-09-04T03:02:00.000Z,0.0
2022-09-04T03:04:00.000Z,0.0
2022-09-04T03:06:00.000Z,0.0
2022-09-04T03:08:00.000Z,0.0
2022-09-04T03:10:00.000Z,0.0
2022-09-04T03:12:00.000Z,0.0
2022-09-04T03:14:00.000Z,0.0
2022-09-04T03:16:00.000Z,0.0
2022-09-04T03:18:00.000Z,0.0
2022-09-04T03:20:00.000Z,0.0
2022-09-04T03:22:00.000Z,0.0
2022-09-04T03:24:00.000Z,0.0
2022-09-04T03:26:00.000Z,0.0
2022-09-04T03:28:00.000Z,0.0
2022-09-04T03:30:00.000Z,0.0
2022-09-04T03:32:00.000Z,0.0
2022-09-04T03:34:00.000Z,0.0
2022-09-04T03:36:00.000Z,0.0
2022-09-04T03:38:00.000Z,0.0
2022-09-04T03:40:00.000Z,0.0
2022-09-04T03:42:00.000Z,0.0
2022-09-04T03:44:00.000Z,0.0
2022-09-04T03:46:00.000Z,0.0
2022-09-04T03:48:00.000Z,0.0
2022-09-04T03:50:00.000Z,0.0
2022-09-04T03:52:00.000Z,0.0
2022-09-04T03:54:00.000Z,0.0
2022-09-04T03:56:00.000Z,0.0
2022-09-04T03:58:00.000Z,0.0
2022-09-04T04:00:00.000Z,0.0
2022-09-04T04:02:00.000Z,0.0
2022-09-04T04:04:00.000Z,0.0
2022-09-04T04:06:00.000Z,0.0
2022-09-04T04:08:00.000Z,0.0
2022-09-04T04:10:00.000Z,0.0
2022-09-04T04:12:00.000Z,0.0
2022-09-04T04:14:00.000Z,0.0
2022-09-04T04:16:00.000Z,0.0
2022-09-04T04:18:00.000Z,0.55
2022-09-04T04:20:00.000Z,0.71
2022-09-04T04:22:00.000Z,1.02
2022-09-04T04:24:00.000Z,1.34
2022-09-04T04:26:00.000Z,1.58
2022-09-04T04:28:00.000Z,1.89
2022-09-04T04:30:00.000Z,2.29
2022-09-04T04:32:00.000Z,2.52
2022-09-04T04:34:00.000Z,3.0
2022-09-04T04:36:00.000Z,3.63
2022-09-04T04:38:00.000Z,4.18
2022-09-04T04:40:00.000Z,4.89
2022-09-04T04:42:00.000Z,5.68
2022-09-04T04:44:00.000Z,6.47
2022-09-04T04:46:00.000Z,7.42
2022-09-04T04:48:00.000Z,8.37
2022-09-04T04:50:00.000Z,9.55
2022-09-04T04:52:00.000Z,10.58
2022-09-04T04:54:00.000Z,11.85
2022-09-04T04:56:00.000Z,12.56
2022-09-04T04:58:00.000Z,13.82
2022-09-04T05:00:00.000Z,15.24
2022-09-04T05:02:00.000Z,16.66
2022-09-04T05:04:00.000Z,18.01
2022-09-04T05:06:00.000Z,19.27
2022-09-04T05:08:00.000Z,20.38
2022-09-04T05:10:00.000Z,21.56
2022-09-04T05:12:00.000Z,22.83
2022-09-04T05:14:00.000Z,24.01
2022-09-04T05:16:00.000Z,25.2
2022-09-04T05:18:00.000Z,26.54
2022-09-04T05:20:00.000Z,28.04
2022-09-04T05:22:00.000Z,28.75
2022-09-04T05:24:00.000Z,30.02
2022-09-04T05:26:00.000Z,31.2
2022-09-04T05:28:00.000Z,32.15
2022-09-04T05:30:00.000Z,33.49
2022-09-04T05:32:00.000Z,34.76
2022-09-04T05:34:00.000Z,36.1
2022-09-04T05:36:00.000Z,37.44
2022-09-04T05:38:00.000Z,38.78
2022-09-04T05:40:00.000Z,40.05
2022-09-04T05:42:00.000Z,42.1
2022-09-04T05:44:00.000Z,45.66
2022-09-04T05:46:00.000Z,45.97
2022-09-04T05:48:00.000Z,49.77
2022-09-04T05:50:00.000Z,52.61
2022-09-04T05:52:00.000Z,54.9
2022-09-04T05:54:00.000Z,57.43
2022-09-04T05:56:00.000Z,60.12
2022-09-04T05:58:00.000Z,62.72
2022-09-04T06:00:00.000Z,67.54
2022-09-04T06:02:00.000Z,69.28
2022-09-04T06:04:00.000Z,70.07
2022-09-04T06:06:00.000Z,70.23
2022-09-04T06:08:00.000Z,77.18
2022-09-04T06:10:00.000Z,83.03
2022-09-04T06:12:00.000Z,85.87
2022-09-04T06:14:00.000Z,90.45
2022-09-04T06:16:00.000Z,95.19
2022-09-04T06:18:00.000Z,99.3
2022-09-04T06:20:00.000Z,101.99
2022-09-04T06:22:00.000Z,106.41
2022-09-04T06:24:00.000Z,108.62
2022-09-04T06:26:00.000Z,114.07
2022-09-04T06:28:00.000Z,118.1
2022-09-04T06:30:00.000Z,122.61
2022-09-04T06:32:00.000Z,125.69
2022-09-04T06:34:00.000Z,130.19
2022-09-04T06:36:00.000Z,120.08
2022-09-04T06:38:00.000Z,138.01
2022-09-04T06:40:00.000Z,142.04
2022-09-04T06:42:00.000Z,147.73
2022-09-04T06:44:00.000Z,153.49
2022-09-04T06:46:00.000Z,158.0
2022-09-04T06:48:00.000Z,163.13
2022-09-04T06:50:00.000Z,165.98
2022-09-04T06:52:00.000Z,172.06
2022-09-04T06:54:00.000Z,177.04
2022-09-04T06:56:00.000Z,181.54
2022-09-04T06:58:00.000Z,181.22
2022-09-04T07:00:00.000Z,185.73
2022-09-04T07:02:00.000Z,189.91
2022-09-04T07:04:00.000Z,191.49
2022-09-04T07:06:00.000Z,201.69
2022-09-04T07:08:00.000Z,192.21
2022-09-04T07:10:00.000Z,212.67
2022-09-04T07:12:00.000Z,222.46
2022-09-04T07:14:00.000Z,225.07
2022-09-04T07:16:00.000Z,230.84
2022-09-04T07:18:00.000Z,238.34
2022-09-04T07:20:00.000Z,225.23
2022-09-04T07:22:00.000Z,246.08
2022-09-04T07:24:00.000Z,248.45
2022-09-04T07:26:00.000Z,256.04
2022-09-04T07:28:00.000Z,262.52
2022-09-04T07:30:00.000Z,268.28
2022-09-04T07:32:00.000Z,273.26
2022-09-04T07:34:00.000Z,276.97
2022-09-04T07:36:00.000Z,278.32
2022-09-04T07:38:00.000Z,285.03
2022-09-04T07:40:00.000Z,301.23
2022-09-04T07:42:00.000Z,303.76
2022-09-04T07:44:00.000Z,312.84
2022-09-04T07:46:00.000Z,297.2
2022-09-04T07:48:00.000Z,297.28
2022-09-04T07:50:00.000Z,304.23
2022-09-04T07:52:00.000Z,319.63
2022-09-04T07:54:00.000Z,328.32
2022-09-04T07:56:00.000Z,335.67
2022-09-04T07:58:00.000Z,352.26
2022-09-04T08:00:00.000Z,342.23
2022-09-04T08:02:00.000Z,349.5
2022-09-04T08:04:00.000Z,348.63
2022-09-04T08:06:00.000Z,342.7
2022-09-04T08:08:00.000Z,343.57
2022-09-04T08:10:00.000Z,349.18
2022-09-04T08:12:00.000Z,363.24
2022-09-04T08:14:00.000Z,369.01
2022-09-04T08:16:00.000Z,377.94
2022-09-04T08:18:00.000Z,386.71
2022-09-04T08:20:00.000Z,390.74
2022-09-04T08:22:00.000Z,397.93
2022-09-04T08:24:00.000Z,389.55
2022-09-04T08:26:00.000Z,387.34
2022-09-04T08:28:00.000Z,407.8
2022-09-04T08:30:00.000Z,425.18
2022-09-04T08:32:00.000Z,405.04
2022-09-04T08:34:00.000Z,405.51
2022-09-04T08:36:00.000Z,393.11
2022-09-04T08:38:00.000Z,405.83
2022-09-04T08:40:00.000Z,412.07
2022-09-04T08:42:00.000Z,410.64
2022-09-04T08:44:00.000Z,437.43
2022-09-04T08:46:00.000Z,445.56
2022-09-04T08:48:00.000Z,449.2
2022-09-04T08:50:00.000Z,454.02
2022-09-04T08:52:00.000Z,443.03
2022-09-04T08:54:00.000Z,432.37
2022-09-04T08:56:00.000Z,455.91
2022-09-04T08:58:00.000Z,466.26
2022-09-04T09:00:00.000Z,463.18
2022-09-04T09:02:00.000Z,481.9
2022-09-04T09:04:00.000Z,483.25
2022-09-04T09:06:00.000Z,486.33
2022-09-04T09:08:00.000Z,483.96
2022-09-04T09:10:00.000Z,480.09
2022-09-04T09:12:00.000Z,474.64
2022-09-04T09:14:00.000Z,485.77
2022-09-04T09:16:00.000Z,490.59
2022-09-04T09:18:00.000Z,498.18
2022-09-04T09:20:00.000Z,507.26
2022-09-04T09:22:00.000Z,523.85
2022-09-04T09:24:00.000Z,521.4
2022-09-04T09:26:00.000Z,522.35
2022-09-04T09:28:00.000Z,527.25
2022-09-04T09:30:00.000Z,527.72
2022-09-04T09:32:00.000Z,535.07
2022-09-04T09:34:00.000Z,545.89
2022-09-04T09:36:00.000Z,548.9
2022-09-04T09:38:00.000Z,555.22
2022-09-04T09:40:00.000Z,555.37
2022-09-04T09:42:00.000Z,556.8
2022-09-04T09:44:00.000Z,559.33
2022-09-04T09:46:00.000Z,559.48
2022-09-04T09:48:00.000Z,563.51
2022-09-04T09:50:00.000Z,567.3
2022-09-04T09:52:00.000Z,572.76
2022-09-04T09:54:00.000Z,573.62
2022-09-04T09:56:00.000Z,570.54
2022-09-04T09:58:00.000Z,583.89
2022-09-04T10:00:00.000Z,587.13
2022-09-04T10:02:00.000Z,589.03
2022-09-04T10:04:00.000Z,581.68
2022-09-04T10:06:00.000Z,592.74
2022-09-04T10:08:00.000Z,563.28
2022-09-04T10:10:00.000Z,578.36
2022-09-04T10:12:00.000Z,579.0
2022-09-04T10:14:00.000Z,591.56
2022-09-04T10:16:00.000Z,599.69
2022-09-04T10:18:00.000Z,609.25
2022-09-04T10:20:00.000Z,615.73
2022-09-04T10:22:00.000Z,616.36
2022-09-04T10:24:00.000Z,617.0
2022-09-04T10:26:00.000Z,595.82
2022-09-04T10:28:00.000Z,609.49
2022-09-04T10:30:00.000Z,611.23
2022-09-04T10:32:00.000Z,598.75
2022-09-04T10:34:00.000Z,609.73
2022-09-04T10:36:00.000Z,618.42
2022-09-04T10:38:00.000Z,607.59
2022-09-04T10:40:00.000Z,603.72
2022-09-04T10:42:00.000Z,619.6
2022-09-04T10:44:00.000Z,624.98
2022-09-04T10:46:00.000Z,625.37
2022-09-04T10:48:00.000Z,625.69
2022-09-04T10:50:00.000Z,618.42
2022-09-04T10:52:00.000Z,608.7
2022-09-04T10:54:00.000Z,607.44
2022-09-04T10:56:00.000Z,618.89
2022-09-04T10:58:00.000Z,617.55
2022-09-04T11:00:00.000Z,609.57
2022-09-04T11:02:00.000Z,623.16
2022-09-04T11:04:00.000Z,626.48
2022-09-04T11:06:00.000Z,624.82
2022-09-04T11:08:00.000Z,630.27
2022-09-04T11:10:00.000Z,630.03
2022-09-04T11:12:00.000Z,629.0
2022-09-04T11:14:00.000Z,620.87
2022-09-04T11:16:00.000Z,599.3
2022-09-04T11:18:00.000Z,598.04
2022-09-04T11:20:00.000Z,599.62
2022-09-04T11:22:00.000Z,610.75
2022-09-04T11:24:00.000Z,614.55
2022-09-04T11:26:00.000Z,611.39
2022-09-04T11:28:00.000Z,612.57
2022-09-04T11:30:00.000Z,615.97
2022-09-04T11:32:00.000Z,606.49
2022-09-04T11:34:00.000Z,601.43
2022-09-04T11:36:00.000Z,613.68
2022-09-04T11:38:00.000Z,594.88
2022-09-04T11:40:00.000Z,588.79
2022-09-04T11:42:00.000Z,601.12
2022-09-04T11:44:00.000Z,592.98
2022-09-04T11:46:00.000Z,620.16
2022-09-04T11:48:00.000Z,620.71
2022-09-04T11:50:00.000Z,617.55
2022-09-04T11:52:00.000Z,552.77
2022-09-04T11:54:00.000Z,516.66
2022-09-04T11:56:00.000Z,602.7
2022-09-04T11:58:00.000Z,622.29
2022-09-04T12:00:00.000Z,599.14
2022-09-04T12:02:00.000Z,572.6
2022-09-04T12:04:00.000Z,565.96
2022-09-04T12:06:00.000Z,550.0
2022-09-04T12:08:00.000Z,504.74
2022-09-04T12:10:00.000Z,520.61
2022-09-04T12:12:00.000Z,479.45
2022-09-04T12:14:00.000Z,497.78
2022-09-04T12:16:00.000Z,515.32
2022-09-04T12:18:00.000Z,532.62
2022-09-04T12:20:00.000Z,524.41
2022-09-04T12:22:00.000Z,548.9
2022-09-04T12:24:00.000Z,582.55
2022-09-04T12:26:00.000Z,590.85
2022-09-04T12:28:00.000Z,620.55
2022-09-04T12:30:00.000Z,585.16
2022-09-04T12:32:00.000Z,605.54
2022-09-04T12:34:00.000Z,562.88
2022-09-04T12:36:00.000Z,599.85
2022-09-04T12:38:00.000Z,574.26
2022-09-04T12:40:00.000Z,583.5
2022-09-04T12:42:00.000Z,576.71
2022-09-04T12:44:00.000Z,581.37
2022-09-04T12:46:00.000Z,571.33
2022-09-04T12:48:00.000Z,571.73
2022-09-04T12:50:00.000Z,561.93
2022-09-04T12:52:00.000Z,561.77
2022-09-04T12:54:00.000Z,551.9
2022-09-04T12:56:00.000Z,525.83
2022-09-04T12:58:00.000Z,560.98
2022-09-04T13:00:00.000Z,532.23
2022-09-04T13:02:00.000Z,447.38
2022-09-04T13:04:00.000Z,389.24
2022-09-04T13:06:00.000Z,451.57
2022-09-04T13:08:00.000Z,529.54
2022-09-04T13:10:00.000Z,517.69
2022-09-04T13:12:00.000Z,531.83
2022-09-04T13:14:00.000Z,489.01
2022-09-04T13:16:00.000Z,469.42
2022-09-04T13:18:00.000Z,355.82
2022-09-04T13:20:00.000Z,484.83
2022-09-04T13:22:00.000Z,512.08
2022-09-04T13:24:00.000Z,523.46
2022-09-04T13:26:00.000Z,531.75
2022-09-04T13:28:00.000Z,502.13
2022-09-04T13:30:00.000Z,535.78
2022-09-04T13:32:00.000Z,519.67
2022-09-04T13:34:00.000Z,540.36
2022-09-04T13:36:00.000Z,492.33
2022-09-04T13:38:00.000Z,454.33
2022-09-04T13:40:00.000Z,387.73
2022-09-04T13:42:00.000Z,416.96
2022-09-04T13:44:00.000Z,451.09
2022-09-04T13:46:00.000Z,484.35
2022-09-04T13:48:00.000Z,458.36
2022-09-04T13:50:00.000Z,480.8
2022-09-04T13:52:00.000Z,448.17
2022-09-04T13:54:00.000Z,402.82
2022-09-04T13:56:00.000Z,360.95
2022-09-04T13:58:00.000Z,411.36
2022-09-04T14:00:00.000Z,390.74
2022-09-04T14:02:00.000Z,382.28
2022-09-04T14:04:00.000Z,184.54
2022-09-04T14:06:00.000Z,175.69
2022-09-04T14:08:00.000Z,230.44
2022-09-04T14:10:00.000Z,346.5
2022-09-04T14:12:00.000Z,338.83
2022-09-04T14:14:00.000Z,360.64
2022-09-04T14:16:00.000Z,369.25
2022-09-04T14:18:00.000Z,359.53
2022-09-04T14:20:00.000Z,346.02
2022-09-04T14:22:00.000Z,362.37
2022-09-04T14:24:00.000Z,151.28
2022-09-04T14:26:00.000Z,268.68
2022-09-04T14:28:00.000Z,310.55
2022-09-04T14:30:00.000Z,308.97
2022-09-04T14:32:00.000Z,330.38
2022-09-04T14:34:00.000Z,342.94
2022-09-04T14:36:00.000Z,322.79
2022-09-04T14:38:00.000Z,276.18
2022-09-04T14:40:00.000Z,282.11
2022-09-04T14:42:00.000Z,216.3
2022-09-04T14:44:00.000Z,278.16
2022-09-04T14:46:00.000Z,281.48
2022-09-04T14:48:00.000Z,285.59
2022-09-04T14:50:00.000Z,278.79
2022-09-04T14:52:00.000Z,261.33
2022-09-04T14:54:00.000Z,258.33
2022-09-04T14:56:00.000Z,248.53
2022-09-04T14:58:00.000Z,243.95
2022-09-04T15:00:00.000Z,226.97
2022-09-04T15:02:00.000Z,203.66
2022-09-04T15:04:00.000Z,188.73
2022-09-04T15:06:00.000Z,176.41
2022-09-04T15:08:00.000Z,186.28
2022-09-04T15:10:00.000Z,182.01
2022-09-04T15:12:00.000Z,172.69
2022-09-04T15:14:00.000Z,170.95
2022-09-04T15:16:00.000Z,171.11
2022-09-04T15:18:00.000Z,168.27
2022-09-04T15:20:00.000Z,176.01
2022-09-04T15:22:00.000Z,178.85
2022-09-04T15:24:00.000Z,176.25
2022-09-04T15:26:00.000Z,164.48
2022-09-04T15:28:00.000Z,183.44
2022-09-04T15:30:00.000Z,210.93
2022-09-04T15:32:00.000Z,207.61
2022-09-04T15:34:00.000Z,216.22
2022-09-04T15:36:00.000Z,222.07
2022-09-04T15:38:00.000Z,224.04
2022-09-04T15:40:00.000Z,224.2
2022-09-04T15:42:00.000Z,212.75
2022-09-04T15:44:00.000Z,199.24
2022-09-04T15:46:00.000Z,189.84
2022-09-04T15:48:00.000Z,177.43
2022-09-04T15:50:00.000Z,170.64
2022-09-04T15:52:00.000Z,150.65
2022-09-04T15:54:00.000Z,123.71
2022-09-04T15:56:00.000Z,140.62
2022-09-04T15:58:00.000Z,149.47
2022-09-04T16:00:00.000Z,152.47
2022-09-04T16:02:00.000Z,164.63
2022-09-04T16:04:00.000Z,158.47
2022-09-04T16:06:00.000Z,158.0
2022-09-04T16:08:00.000Z,148.44
2022-09-04T16:10:00.000Z,124.03
2022-09-04T16:12:00.000Z,108.38
2022-09-04T16:14:00.000Z,115.97
2022-09-04T16:16:00.000Z,119.21
2022-09-04T16:18:00.000Z,129.4
2022-09-04T16:20:00.000Z,133.74
2022-09-04T16:22:00.000Z,130.74
2022-09-04T16:24:00.000Z,126.71
2022-09-04T16:26:00.000Z,120.39
2022-09-04T16:28:00.000Z,115.65
2022-09-04T16:30:00.000Z,110.75
2022-09-04T16:32:00.000Z,105.38
2022-09-04T16:34:00.000Z,98.83
2022-09-04T16:36:00.000Z,95.35
2022-09-04T16:38:00.000Z,88.0
2022-09-04T16:40:00.000Z,82.0
2022-09-04T16:42:00.000Z,78.52
2022-09-04T16:44:00.000Z,72.28
2022-09-04T16:46:00.000Z,67.78
2022-09-04T16:48:00.000Z,62.41
2022-09-04T16:50:00.000Z,58.93
2022-09-04T16:52:00.000Z,55.37
2022-09-04T16:54:00.000Z,51.03
2022-09-04T16:56:00.000Z,50.71
2022-09-04T16:58:00.000Z,45.5
2022-09-04T17:00:00.000Z,41.87
2022-09-04T17:02:00.000Z,40.13
2022-09-04T17:04:00.000Z,36.57
2022-09-04T17:06:00.000Z,33.25
2022-09-04T17:08:00.000Z,29.7
2022-09-04T17:10:00.000Z,27.01
2022-09-04T17:12:00.000Z,25.04
2022-09-04T17:14:00.000Z,23.77
2022-09-04T17:16:00.000Z,22.75
2022-09-04T17:18:00.000Z,21.64
2022-09-04T17:20:00.000Z,20.85
2022-09-04T17:22:00.000Z,20.3
2022-09-04T17:24:00.000Z,19.98
2022-09-04T17:26:00.000Z,19.98
2022-09-04T17:28:00.000Z,19.67
2022-09-04T17:30:00.000Z,18.17
2022-09-04T17:32:00.000Z,16.43
2022-09-04T17:34:00.000Z,14.93
2022-09-04T17:36:00.000Z,13.82
2022-09-04T17:38:00.000Z,12.79
2022-09-04T17:40:00.000Z,11.92
2022-09-04T17:42:00.000Z,10.9
2022-09-04T17:44:00.000Z,10.19
2022-09-04T17:46:00.000Z,9.48
2022-09-04T17:48:00.000Z,8.37
2022-09-04T17:50:00.000Z,7.11
2022-09-04T17:52:00.000Z,6.55
2022-09-04T17:54:00.000Z,5.45
2022-09-04T17:56:00.000Z,4.58
2022-09-04T17:58:00.000Z,3.87
2022-09-04T18:00:00.000Z,3.31
2022-09-04T18:02:00.000Z,2.76
2022-09-04T18:04:00.000Z,2.29
2022-09-04T18:06:00.000Z,1.89
2022-09-04T18:08:00.000Z,1.58
2022-09-04T18:10:00.000Z,1.26
2022-09-04T18:12:00.000Z,1.02
2022-09-04T18:14:00.000Z,0.71
2022-09-04T18:16:00.000Z,0.63
2022-09-04T18:18:00.000Z,0.39
2022-09-04T18:20:00.000Z,0.31
2022-09-04T18:22:00.000Z,0.0
2022-09-04T18:24:00.000Z,0.0
2022-09-04T18:26:00.000Z,0.0
2022-09-04T18:28:00.000Z,0.0
2022-09-04T18:30:00.000Z,0.0
2022-09-04T18:32:00.000Z,0.0
2022-09-04T18:34:00.000Z,0.0
2022-09-04T18:36:00.000Z,0.0
2022-09-04T18:38:00.000Z,0.0
2022-09-04T18:40:00.000Z,0.0
2022-09-04T18:42:00.000Z,0.0
2022-09-04T18:44:00.000Z,0.0
2022-09-04T18:46:00.000Z,0.0
2022-09-04T18:48:00.000Z,0.0
2022-09-04T18:50:00.000Z,0.0
2022-09-04T18:52:00.000Z,0.0
2022-09-04T18:54:00.000Z,0.0
2022-09-04T18:56:00.000Z,0.0
2022-09-04T18:58:00.000Z,0.0
2022-09-04T19:00:00.000Z,0.0
2022-09-04T19:02:00.000Z,0.0
2022-09-04T19:04:00.000Z,0.0
2022-09-04T19:06:00.000Z,0.0
2022-09-04T19:08:00.000Z,0.0
2022-09-04T19:10:00.000Z,0.0
2022-09-04T19:12:00.000Z,0.0
2022-09-04T19:14:00.000Z,0.0
2022-09-04T19:16:00.000Z,0.0
2022-09-04T19:18:00.000Z,0.0
2022-09-04T19:20:00.000Z,0.0
2022-09-04T19:22:00.000Z,0.0
2022-09-04T19:24:00.000Z,0.0
2022-09-04T19:26:00.000Z,0.0
2022-09-04T19:28:00.000Z,0.0
2022-09-04T19:30:00.000Z,0.0
2022-09-04T19:32:00.000Z,0.0
2022-09-04T19:34:00.000Z,0.0
2022-09-04T19:36:00.000Z,0.0
2022-09-04T19:38:00.000Z,0.0
2022-09-04T19:40:00.000Z,0.0
2022-09-04T19:42:00.000Z,0.0
2022-09-04T19:44:00.000Z,0.0
2022-09-04T19:46:00.000Z,0.0
2022-09-04T19:48:00.000Z,0.0
2022-09-04T19:50:00.000Z,0.0
2022-09-04T19:52:00.000Z,0.0
2022-09-04T19:54:00.000Z,0.0
2022-09-04T19:56:00.000Z,0.0
2022-09-04T19:58:00.000Z,0.0
2022-09-04T20:00:00.000Z,0.0
2022-09-04T20:02:00.000Z,0.0
2022-09-04T20:04:00.000Z,0.0
2022-09-04T20:06:00.000Z,0.0
2022-09-04T20:08:00.000Z,0.0
2022-09-04T20:10:00.000Z,0.0
2022-09-04T20:12:00.000Z,0.0
2022-09-04T20:14:00.000Z,0.0
2022-09-04T20:16:00.000Z,0.0
2022-09-04T20:18:00.000Z,0.0
2022-09-04T20:20:00.000Z,0.0
2022-09-04T20:22:00.000Z,0.0
2022-09-04T20:24:00.000Z,0.0
2022-09-04T20:26:00.000Z,0.0
2022-09-04T20:28:00.000Z,0.0
2022-09-04T20:30:00.000Z,0.0
2022-09-04T20:32:00.000Z,0.0
2022-09-04T20:34:00.000Z,0.0
2022-09-04T20:36:00.000Z,0.0
2022-09-04T20:38:00.000Z,0.0
2022-09-04T20:40:00.000Z,0.0
2022-09-04T20:42:00.000Z,0.0
2022-09-04T20:44:00.000Z,0.0
2022-09-04T20:46:00.000Z,0.0
2022-09-04T20:48:00.000Z,0.0
2022-09-04T20:50:00.000Z,0.0
2022-09-04T20:52:00.000Z,0.0
2022-09-04T20:54:00.000Z,0.0
2022-09-04T20:56:00.000Z,0.0
2022-09-04T20:58:00.000Z,0.0
2022-09-04T21:00:00.000Z,0.0
2022-09-04T21:02:00.000Z,0.0
2022-09-04T21:04:00.000Z,0.0
2022-09-04T21:06:00.000Z,0.0
2022-09-04T21:08:00.000Z,0.0
2022-09-04T21:10:00.000Z,0.0
2022-09-04T21:12:00.000Z,0.0
2022-09-04T21:14:00.000Z,0.0
2022-09-04T21:16:00.000Z,0.0
2022-09-04T21:18:00.000Z,0.0
2022-09-04T21:20:00.000Z,0.0
2022-09-04T21:22:00.000Z,0.0
2022-09-04T21:24:00.000Z,0.0
2022-09-04T21:26:00.000Z,0.0
2022-09-04T21:28:00.000Z,0.0
2022-09-04T21:30:00.000Z,0.0
2022-09-04T21:32:00.000Z,0.0
2022-09-04T21:34:00.000Z,0.0
2022-09-04T21:36:00.000Z,0.0
2022-09-04T21:38:00.000Z,0.0
2022-09-04T21:40:00.000Z,0.0
2022-09-04T21:42:00.000Z,0.0
2022-09-04T21:44:00.000Z,0.0
2022-09-04T21:46:00.000Z,0.0
2022-09-04T21:48:00.000Z,0.0
2022-09-04T21:50:00.000Z,0.0
2022-09-04T21:52:00.000Z,0.0
2022-09-04T21:54:00.000Z,0.0
2022-09-04T21:56:00.000Z,0.0
2022-09-04T21:58:00.000Z,0.0
2022-09-04T22:00:00.000Z,0.0
2022-09-04T22:02:00.000Z,0.0
2022-09-04T22:04:00.000Z,0.0
2022-09-04T22:06:00.000Z,0.0
2022-09-04T22:08:00.000Z,0.0
2022-09-04T22:10:00.000Z,0.0
2022-09-04T22:12:00.000Z,0.0
2022-09-04T22:14:00.000Z,0.0
2022-09-04T22:16:00.000Z,0.0
2022-09-04T22:18:00.000Z,0.0
2022-09-04T22:20:00.000Z,0.0
2022-09-04T22:22:00.000Z,0.0
2022-09-04T22:24:00.000Z,0.0
2022-09-04T22:26:00.000Z,0.0
2022-09-04T22:28:00.000Z,0.0
2022-09-04T22:30:00.000Z,0.0
2022-09-04T22:32:00.000Z,0.0
2022-09-04T22:34:00.000Z,0.0
2022-09-04T22:36:00.000Z,0.0
2022-09-04T22:38:00.000Z,0.0
2022-09-04T22:40:00.000Z,0.0
2022-09-04T22:42:00.000Z,0.0
2022-09-04T22:44:00.000Z,0.0
2022-09-04T22:46:00.000Z,0.0
2022-09-04T22:48:00.000Z,0.0
2022-09-04T22:50:00.000Z,0.0
2022-09-04T22:52:00.000Z,0.0
2022-09-04T22:54:00.000Z,0.0
2022-09-04T22:56:00.000Z,0.0
2022-09-04T22:58:00.000Z,0.0
2022-09-04T23:00:00.000Z,0.0
2022-09-04T23:02:00.000Z,0.0
2022-09-04T23:04:00.000Z,0.0
2022-09-04T23:06:00.000Z,0.0
2022-09-04T23:08:00.000Z,0.0
2022-09-04T23:10:00.000Z,0.0
2022-09-04T23:12:00.000Z,0.0
2022-09-04T23:14:00.000Z,0.0
2022-09-04T23:16:00.000Z,0.0
2022-09-04T23:18:00.000Z,0.0
2022-09-04T23:20:00.000Z,0.0
2022-09-04T23:22:00.000Z,0.0
2022-09-04T23:24:00.000Z,0.0
2022-09-04T23:26:00.000Z,0.0
2022-09-04T23:28:00.000Z,0.0
2022-09-04T23:30:00.000Z,0.0
2022-09-04T23:32:00.000Z,0.0
2022-09-04T23:34:00.000Z,0.0
2022-09-04T23:36:00.000Z,0.0
2022-09-04T23:38:00.000Z,0.0
2022-09-04T23:40:00.000Z,0.0
2022-09-04T23:42:00.000Z,0.0
2022-09-04T23:44:00.000Z,0.0
2022-09-04T23:46:00.000Z,0.0
2022-09-04T23:48:00.000Z,0.0
2022-09-04T23:50:00.000Z,0.0
2022-09-04T23:52:00.000Z,0.0
2022-09-04T23:54:00.000Z,0.0
2022-09-04T23:56:00.000Z,0.0
2022-09-04T23:58:00.000Z,0.0
